sensor_id;sensor_type;location;lat;lon;timestamp;P1;durP1;ratioP1;P2;durP2;ratioP2
8574;SDS011;4325;42.520;27.448;2022-12-07T00:01:52;40.90;;;28.20;;
8574;SDS011;4325;42.520;27.448;2022-12-07T00:04:19;39.93;;;28.37;;
8574;SDS011;4325;42.520;27.448;2022-12-07T00:06:51;41.70;;;29.97;;
8574;SDS011;4325;42.520;27.448;2022-12-07T00:09:19;38.53;;;27.90;;
8574;SDS011;4325;42.520;27.448;2022-12-07T00:11:49;37.80;;;24.57;;
8574;SDS011;4325;42.520;27.448;2022-12-07T00:14:17;32.37;;;22.97;;
8574;SDS011;4325;42.520;27.448;2022-12-07T00:16:44;36.07;;;22.50;;
8574;SDS011;4325;42.520;27.448;2022-12-07T00:19:12;29.60;;;20.93;;
8574;SDS011;4325;42.520;27.448;2022-12-07T00:21:40;24.40;;;20.40;;
8574;SDS011;4325;42.520;27.448;2022-12-07T00:24:07;23.10;;;19.20;;
8574;SDS011;4325;42.520;27.448;2022-12-07T00:26:34;22.17;;;19.23;;
8574;SDS011;4325;42.520;27.448;2022-12-07T00:29:05;24.17;;;18.53;;
8574;SDS011;4325;42.520;27.448;2022-12-07T00:31:34;24.20;;;18.57;;
8574;SDS011;4325;42.520;27.448;2022-12-07T00:34:04;23.33;;;19.57;;
8574;SDS011;4325;42.520;27.448;2022-12-07T00:36:31;25.43;;;19.07;;
8574;SDS011;4325;42.520;27.448;2022-12-07T00:38:58;27.17;;;20.23;;
8574;SDS011;4325;42.520;27.448;2022-12-07T00:41:26;28.83;;;18.00;;
8574;SDS011;4325;42.520;27.448;2022-12-07T00:43:54;24.90;;;18.50;;
8574;SDS011;4325;42.520;27.448;2022-12-07T00:46:23;26.00;;;18.43;;
8574;SDS011;4325;42.520;27.448;2022-12-07T00:48:50;22.27;;;18.87;;
8574;SDS011;4325;42.520;27.448;2022-12-07T00:51:20;26.20;;;19.50;;
8574;SDS011;4325;42.520;27.448;2022-12-07T00:53:48;25.07;;;18.97;;
8574;SDS011;4325;42.520;27.448;2022-12-07T00:56:15;22.10;;;18.20;;
8574;SDS011;4325;42.520;27.448;2022-12-07T00:58:43;26.10;;;20.37;;
8574;SDS011;4325;42.520;27.448;2022-12-07T01:01:10;21.97;;;18.37;;
8574;SDS011;4325;42.520;27.448;2022-12-07T01:03:39;29.40;;;19.17;;
8574;SDS011;4325;42.520;27.448;2022-12-07T01:06:06;24.77;;;18.70;;
8574;SDS011;4325;42.520;27.448;2022-12-07T01:08:32;27.87;;;19.60;;
8574;SDS011;4325;42.520;27.448;2022-12-07T01:11:00;23.80;;;19.47;;
8574;SDS011;4325;42.520;27.448;2022-12-07T01:13:28;24.13;;;18.20;;
8574;SDS011;4325;42.520;27.448;2022-12-07T01:15:56;26.13;;;19.90;;
8574;SDS011;4325;42.520;27.448;2022-12-07T01:18:24;25.57;;;19.10;;
8574;SDS011;4325;42.520;27.448;2022-12-07T01:21:00;22.40;;;17.97;;
8574;SDS011;4325;42.520;27.448;2022-12-07T01:23:29;25.37;;;16.67;;
8574;SDS011;4325;42.520;27.448;2022-12-07T01:25:57;21.13;;;18.00;;
8574;SDS011;4325;42.520;27.448;2022-12-07T01:28:25;21.87;;;17.33;;
8574;SDS011;4325;42.520;27.448;2022-12-07T01:30:56;21.50;;;17.93;;
8574;SDS011;4325;42.520;27.448;2022-12-07T01:33:26;22.43;;;16.90;;
8574;SDS011;4325;42.520;27.448;2022-12-07T01:35:53;24.30;;;18.20;;
8574;SDS011;4325;42.520;27.448;2022-12-07T01:38:21;20.23;;;17.20;;
8574;SDS011;4325;42.520;27.448;2022-12-07T01:40:53;22.63;;;17.93;;
8574;SDS011;4325;42.520;27.448;2022-12-07T01:43:20;25.20;;;17.83;;
8574;SDS011;4325;42.520;27.448;2022-12-07T01:45:49;23.70;;;18.33;;
8574;SDS011;4325;42.520;27.448;2022-12-07T01:48:16;31.97;;;19.80;;
8574;SDS011;4325;42.520;27.448;2022-12-07T01:50:47;23.33;;;17.27;;
8574;SDS011;4325;42.520;27.448;2022-12-07T01:53:17;25.30;;;18.60;;
8574;SDS011;4325;42.520;27.448;2022-12-07T01:55:46;25.03;;;19.13;;
8574;SDS011;4325;42.520;27.448;2022-12-07T01:58:16;25.70;;;18.77;;
8574;SDS011;4325;42.520;27.448;2022-12-07T02:00:43;25.37;;;17.83;;
8574;SDS011;4325;42.520;27.448;2022-12-07T02:03:11;21.87;;;17.13;;
8574;SDS011;4325;42.520;27.448;2022-12-07T02:05:44;22.00;;;17.03;;
8574;SDS011;4325;42.520;27.448;2022-12-07T02:08:12;25.07;;;17.53;;
8574;SDS011;4325;42.520;27.448;2022-12-07T02:10:40;22.60;;;16.97;;
8574;SDS011;4325;42.520;27.448;2022-12-07T02:13:10;22.73;;;18.30;;
8574;SDS011;4325;42.520;27.448;2022-12-07T02:15:43;23.57;;;17.93;;
8574;SDS011;4325;42.520;27.448;2022-12-07T02:18:20;27.20;;;18.43;;
8574;SDS011;4325;42.520;27.448;2022-12-07T02:20:57;25.80;;;18.30;;
8574;SDS011;4325;42.520;27.448;2022-12-07T02:23:40;25.87;;;18.17;;
8574;SDS011;4325;42.520;27.448;2022-12-07T02:26:24;24.13;;;18.60;;
8574;SDS011;4325;42.520;27.448;2022-12-07T02:29:22;23.60;;;18.60;;
8574;SDS011;4325;42.520;27.448;2022-12-07T02:31:53;26.67;;;18.50;;
8574;SDS011;4325;42.520;27.448;2022-12-07T02:34:31;28.93;;;20.77;;
8574;SDS011;4325;42.520;27.448;2022-12-07T02:37:06;25.30;;;19.20;;
8574;SDS011;4325;42.520;27.448;2022-12-07T02:39:39;26.37;;;20.00;;
8574;SDS011;4325;42.520;27.448;2022-12-07T02:42:12;45.30;;;31.83;;
8574;SDS011;4325;42.520;27.448;2022-12-07T02:44:45;34.33;;;24.93;;
8574;SDS011;4325;42.520;27.448;2022-12-07T02:47:14;30.07;;;22.37;;
8574;SDS011;4325;42.520;27.448;2022-12-07T02:49:43;32.70;;;22.00;;
8574;SDS011;4325;42.520;27.448;2022-12-07T02:52:11;32.03;;;21.33;;
8574;SDS011;4325;42.520;27.448;2022-12-07T02:54:38;28.97;;;22.17;;
8574;SDS011;4325;42.520;27.448;2022-12-07T02:57:07;34.37;;;22.33;;
8574;SDS011;4325;42.520;27.448;2022-12-07T02:59:49;29.90;;;22.27;;
8574;SDS011;4325;42.520;27.448;2022-12-07T03:02:29;29.93;;;21.57;;
8574;SDS011;4325;42.520;27.448;2022-12-07T03:05:07;29.03;;;21.63;;
8574;SDS011;4325;42.520;27.448;2022-12-07T03:07:49;27.10;;;21.37;;
8574;SDS011;4325;42.520;27.448;2022-12-07T03:10:22;27.73;;;20.83;;
8574;SDS011;4325;42.520;27.448;2022-12-07T03:13:00;29.50;;;22.63;;
8574;SDS011;4325;42.520;27.448;2022-12-07T03:15:33;29.97;;;21.90;;
8574;SDS011;4325;42.520;27.448;2022-12-07T03:18:06;30.20;;;22.80;;
8574;SDS011;4325;42.520;27.448;2022-12-07T03:20:35;38.87;;;22.43;;
8574;SDS011;4325;42.520;27.448;2022-12-07T03:23:04;35.57;;;24.20;;
8574;SDS011;4325;42.520;27.448;2022-12-07T03:25:34;32.57;;;23.63;;
8574;SDS011;4325;42.520;27.448;2022-12-07T03:28:05;31.83;;;23.73;;
8574;SDS011;4325;42.520;27.448;2022-12-07T03:30:37;44.20;;;28.03;;
8574;SDS011;4325;42.520;27.448;2022-12-07T03:33:09;40.13;;;28.17;;
8574;SDS011;4325;42.520;27.448;2022-12-07T03:35:40;44.30;;;31.17;;
8574;SDS011;4325;42.520;27.448;2022-12-07T03:38:14;44.17;;;30.23;;
8574;SDS011;4325;42.520;27.448;2022-12-07T03:40:47;52.10;;;34.87;;
8574;SDS011;4325;42.520;27.448;2022-12-07T03:43:19;47.90;;;32.93;;
8574;SDS011;4325;42.520;27.448;2022-12-07T03:45:51;50.63;;;33.03;;
8574;SDS011;4325;42.520;27.448;2022-12-07T03:48:28;44.57;;;27.37;;
8574;SDS011;4325;42.520;27.448;2022-12-07T03:51:03;35.03;;;25.27;;
8574;SDS011;4325;42.520;27.448;2022-12-07T03:53:39;36.03;;;26.07;;
8574;SDS011;4325;42.520;27.448;2022-12-07T03:56:08;30.60;;;22.97;;
8574;SDS011;4325;42.520;27.448;2022-12-07T03:58:37;35.93;;;24.23;;
8574;SDS011;4325;42.520;27.448;2022-12-07T04:01:07;43.03;;;27.73;;
8574;SDS011;4325;42.520;27.448;2022-12-07T04:03:34;33.90;;;25.33;;
8574;SDS011;4325;42.520;27.448;2022-12-07T04:06:01;37.23;;;25.47;;
8574;SDS011;4325;42.520;27.448;2022-12-07T04:08:28;47.70;;;28.43;;
8574;SDS011;4325;42.520;27.448;2022-12-07T04:10:55;45.37;;;27.27;;
8574;SDS011;4325;42.520;27.448;2022-12-07T04:13:21;34.40;;;25.93;;
8574;SDS011;4325;42.520;27.448;2022-12-07T04:15:48;37.17;;;26.20;;
8574;SDS011;4325;42.520;27.448;2022-12-07T04:18:17;58.20;;;38.10;;
8574;SDS011;4325;42.520;27.448;2022-12-07T04:20:45;47.73;;;34.67;;
8574;SDS011;4325;42.520;27.448;2022-12-07T04:23:12;48.50;;;35.70;;
8574;SDS011;4325;42.520;27.448;2022-12-07T04:25:38;54.27;;;41.77;;
8574;SDS011;4325;42.520;27.448;2022-12-07T04:28:06;62.40;;;44.67;;
8574;SDS011;4325;42.520;27.448;2022-12-07T04:30:33;46.20;;;31.07;;
8574;SDS011;4325;42.520;27.448;2022-12-07T04:32:59;33.73;;;25.73;;
8574;SDS011;4325;42.520;27.448;2022-12-07T04:35:28;35.67;;;25.03;;
8574;SDS011;4325;42.520;27.448;2022-12-07T04:37:55;38.13;;;28.07;;
8574;SDS011;4325;42.520;27.448;2022-12-07T04:40:22;41.77;;;27.77;;
8574;SDS011;4325;42.520;27.448;2022-12-07T04:42:48;31.57;;;23.37;;
8574;SDS011;4325;42.520;27.448;2022-12-07T04:45:15;34.77;;;23.70;;
8574;SDS011;4325;42.520;27.448;2022-12-07T04:47:42;31.63;;;25.13;;
8574;SDS011;4325;42.520;27.448;2022-12-07T04:50:09;41.63;;;26.40;;
8574;SDS011;4325;42.520;27.448;2022-12-07T04:52:38;38.87;;;26.60;;
8574;SDS011;4325;42.520;27.448;2022-12-07T04:55:05;43.17;;;30.57;;
8574;SDS011;4325;42.520;27.448;2022-12-07T04:57:32;39.83;;;27.77;;
8574;SDS011;4325;42.520;27.448;2022-12-07T04:59:59;41.33;;;28.13;;
8574;SDS011;4325;42.520;27.448;2022-12-07T05:02:26;37.70;;;26.13;;
8574;SDS011;4325;42.520;27.448;2022-12-07T05:04:53;45.27;;;31.17;;
8574;SDS011;4325;42.520;27.448;2022-12-07T05:07:19;48.53;;;31.83;;
8574;SDS011;4325;42.520;27.448;2022-12-07T05:09:48;36.10;;;24.00;;
8574;SDS011;4325;42.520;27.448;2022-12-07T05:12:15;34.93;;;24.23;;
8574;SDS011;4325;42.520;27.448;2022-12-07T05:14:41;39.17;;;24.83;;
8574;SDS011;4325;42.520;27.448;2022-12-07T05:17:08;29.83;;;21.37;;
8574;SDS011;4325;42.520;27.448;2022-12-07T05:19:36;36.30;;;22.60;;
8574;SDS011;4325;42.520;27.448;2022-12-07T05:22:03;41.53;;;28.43;;
8574;SDS011;4325;42.520;27.448;2022-12-07T05:24:30;37.10;;;26.37;;
8574;SDS011;4325;42.520;27.448;2022-12-07T05:26:58;38.87;;;25.13;;
8574;SDS011;4325;42.520;27.448;2022-12-07T05:29:25;30.67;;;22.10;;
8574;SDS011;4325;42.520;27.448;2022-12-07T05:31:52;32.57;;;23.40;;
8574;SDS011;4325;42.520;27.448;2022-12-07T05:34:19;34.00;;;24.07;;
8574;SDS011;4325;42.520;27.448;2022-12-07T05:36:46;34.27;;;23.23;;
8574;SDS011;4325;42.520;27.448;2022-12-07T05:39:12;30.40;;;19.83;;
8574;SDS011;4325;42.520;27.448;2022-12-07T05:41:39;28.07;;;18.67;;
8574;SDS011;4325;42.520;27.448;2022-12-07T05:44:25;28.67;;;20.33;;
8574;SDS011;4325;42.520;27.448;2022-12-07T05:46:52;26.33;;;19.30;;
8574;SDS011;4325;42.520;27.448;2022-12-07T05:49:19;25.00;;;18.73;;
8574;SDS011;4325;42.520;27.448;2022-12-07T05:51:46;28.53;;;17.93;;
8574;SDS011;4325;42.520;27.448;2022-12-07T05:54:13;30.30;;;20.40;;
8574;SDS011;4325;42.520;27.448;2022-12-07T05:56:39;26.97;;;18.10;;
8574;SDS011;4325;42.520;27.448;2022-12-07T05:59:07;25.23;;;17.93;;
8574;SDS011;4325;42.520;27.448;2022-12-07T06:01:52;24.17;;;17.83;;
8574;SDS011;4325;42.520;27.448;2022-12-07T06:04:20;25.67;;;16.87;;
8574;SDS011;4325;42.520;27.448;2022-12-07T06:06:48;25.13;;;18.77;;
8574;SDS011;4325;42.520;27.448;2022-12-07T06:09:15;25.97;;;17.30;;
8574;SDS011;4325;42.520;27.448;2022-12-07T06:11:43;25.87;;;17.50;;
8574;SDS011;4325;42.520;27.448;2022-12-07T06:14:27;29.63;;;18.50;;
8574;SDS011;4325;42.520;27.448;2022-12-07T06:16:55;31.10;;;22.60;;
8574;SDS011;4325;42.520;27.448;2022-12-07T06:19:22;37.27;;;26.87;;
8574;SDS011;4325;42.520;27.448;2022-12-07T06:21:49;52.00;;;41.17;;
8574;SDS011;4325;42.520;27.448;2022-12-07T06:24:17;40.13;;;24.23;;
8574;SDS011;4325;42.520;27.448;2022-12-07T06:26:44;40.60;;;28.10;;
8574;SDS011;4325;42.520;27.448;2022-12-07T06:29:11;61.30;;;43.60;;
8574;SDS011;4325;42.520;27.448;2022-12-07T06:31:38;56.73;;;42.07;;
8574;SDS011;4325;42.520;27.448;2022-12-07T06:34:07;58.27;;;43.03;;
8574;SDS011;4325;42.520;27.448;2022-12-07T06:36:36;65.17;;;46.73;;
8574;SDS011;4325;42.520;27.448;2022-12-07T06:39:03;62.23;;;48.07;;
8574;SDS011;4325;42.520;27.448;2022-12-07T06:41:31;63.70;;;50.97;;
8574;SDS011;4325;42.520;27.448;2022-12-07T06:43:58;50.03;;;39.67;;
8574;SDS011;4325;42.520;27.448;2022-12-07T06:46:25;49.43;;;40.23;;
8574;SDS011;4325;42.520;27.448;2022-12-07T06:48:51;46.07;;;36.30;;
8574;SDS011;4325;42.520;27.448;2022-12-07T06:51:20;47.00;;;33.93;;
8574;SDS011;4325;42.520;27.448;2022-12-07T06:53:47;31.17;;;27.33;;
8574;SDS011;4325;42.520;27.448;2022-12-07T06:56:13;25.90;;;20.37;;
8574;SDS011;4325;42.520;27.448;2022-12-07T06:58:41;24.70;;;20.63;;
8574;SDS011;4325;42.520;27.448;2022-12-07T07:01:08;28.17;;;21.07;;
8574;SDS011;4325;42.520;27.448;2022-12-07T07:03:36;22.20;;;19.73;;
8574;SDS011;4325;42.520;27.448;2022-12-07T07:06:03;29.57;;;20.90;;
8574;SDS011;4325;42.520;27.448;2022-12-07T07:08:31;22.20;;;18.97;;
8574;SDS011;4325;42.520;27.448;2022-12-07T07:10:58;29.67;;;19.63;;
8574;SDS011;4325;42.520;27.448;2022-12-07T07:13:25;20.53;;;16.40;;
8574;SDS011;4325;42.520;27.448;2022-12-07T07:15:52;21.63;;;17.43;;
8574;SDS011;4325;42.520;27.448;2022-12-07T07:18:19;20.67;;;17.10;;
8574;SDS011;4325;42.520;27.448;2022-12-07T07:20:46;25.07;;;17.73;;
8574;SDS011;4325;42.520;27.448;2022-12-07T07:23:13;19.53;;;17.47;;
8574;SDS011;4325;42.520;27.448;2022-12-07T07:25:41;21.70;;;15.23;;
8574;SDS011;4325;42.520;27.448;2022-12-07T07:28:08;19.00;;;16.37;;
8574;SDS011;4325;42.520;27.448;2022-12-07T07:30:35;29.53;;;24.33;;
8574;SDS011;4325;42.520;27.448;2022-12-07T07:33:02;34.40;;;29.00;;
8574;SDS011;4325;42.520;27.448;2022-12-07T07:35:31;40.93;;;35.93;;
8574;SDS011;4325;42.520;27.448;2022-12-07T07:37:59;40.20;;;32.77;;
8574;SDS011;4325;42.520;27.448;2022-12-07T07:40:26;37.87;;;32.47;;
8574;SDS011;4325;42.520;27.448;2022-12-07T07:42:56;34.80;;;28.57;;
8574;SDS011;4325;42.520;27.448;2022-12-07T07:45:24;24.67;;;20.73;;
8574;SDS011;4325;42.520;27.448;2022-12-07T07:47:52;20.40;;;15.50;;
8574;SDS011;4325;42.520;27.448;2022-12-07T07:50:19;18.80;;;14.70;;
8574;SDS011;4325;42.520;27.448;2022-12-07T07:52:46;17.80;;;14.93;;
8574;SDS011;4325;42.520;27.448;2022-12-07T07:55:13;23.47;;;16.27;;
8574;SDS011;4325;42.520;27.448;2022-12-07T07:57:40;27.90;;;18.87;;
8574;SDS011;4325;42.520;27.448;2022-12-07T08:00:10;24.50;;;18.07;;
8574;SDS011;4325;42.520;27.448;2022-12-07T08:02:40;28.23;;;19.87;;
8574;SDS011;4325;42.520;27.448;2022-12-07T08:05:08;29.23;;;22.17;;
8574;SDS011;4325;42.520;27.448;2022-12-07T08:07:36;34.53;;;22.07;;
8574;SDS011;4325;42.520;27.448;2022-12-07T08:10:03;38.30;;;21.47;;
8574;SDS011;4325;42.520;27.448;2022-12-07T08:12:31;25.80;;;20.77;;
8574;SDS011;4325;42.520;27.448;2022-12-07T08:15:01;23.47;;;17.97;;
8574;SDS011;4325;42.520;27.448;2022-12-07T08:17:30;22.57;;;16.47;;
8574;SDS011;4325;42.520;27.448;2022-12-07T08:19:56;26.00;;;15.80;;
8574;SDS011;4325;42.520;27.448;2022-12-07T08:22:23;22.23;;;17.23;;
8574;SDS011;4325;42.520;27.448;2022-12-07T08:24:50;23.37;;;19.30;;
8574;SDS011;4325;42.520;27.448;2022-12-07T08:27:17;23.00;;;17.37;;
8574;SDS011;4325;42.520;27.448;2022-12-07T08:29:44;22.93;;;14.67;;
8574;SDS011;4325;42.520;27.448;2022-12-07T08:32:11;17.20;;;14.50;;
8574;SDS011;4325;42.520;27.448;2022-12-07T08:34:39;18.63;;;15.70;;
8574;SDS011;4325;42.520;27.448;2022-12-07T08:37:06;15.40;;;13.80;;
8574;SDS011;4325;42.520;27.448;2022-12-07T08:39:33;20.47;;;13.80;;
8574;SDS011;4325;42.520;27.448;2022-12-07T08:42:00;14.93;;;13.33;;
8574;SDS011;4325;42.520;27.448;2022-12-07T08:44:27;16.43;;;11.07;;
8574;SDS011;4325;42.520;27.448;2022-12-07T08:46:55;16.27;;;11.80;;
8574;SDS011;4325;42.520;27.448;2022-12-07T08:49:24;13.80;;;12.20;;
8574;SDS011;4325;42.520;27.448;2022-12-07T08:51:59;16.27;;;12.67;;
8574;SDS011;4325;42.520;27.448;2022-12-07T08:54:26;14.97;;;11.73;;
8574;SDS011;4325;42.520;27.448;2022-12-07T08:56:54;15.03;;;11.93;;
8574;SDS011;4325;42.520;27.448;2022-12-07T08:59:22;19.33;;;12.53;;
8574;SDS011;4325;42.520;27.448;2022-12-07T09:01:49;15.83;;;12.97;;
8574;SDS011;4325;42.520;27.448;2022-12-07T09:04:16;20.10;;;13.07;;
8574;SDS011;4325;42.520;27.448;2022-12-07T09:06:43;14.50;;;13.00;;
8574;SDS011;4325;42.520;27.448;2022-12-07T09:09:12;19.30;;;15.70;;
8574;SDS011;4325;42.520;27.448;2022-12-07T09:11:40;16.77;;;15.03;;
8574;SDS011;4325;42.520;27.448;2022-12-07T09:14:07;20.83;;;15.57;;
8574;SDS011;4325;42.520;27.448;2022-12-07T09:16:34;21.20;;;16.13;;
8574;SDS011;4325;42.520;27.448;2022-12-07T09:19:01;19.43;;;15.77;;
8574;SDS011;4325;42.520;27.448;2022-12-07T09:21:28;18.77;;;16.57;;
8574;SDS011;4325;42.520;27.448;2022-12-07T09:23:54;17.47;;;15.60;;
8574;SDS011;4325;42.520;27.448;2022-12-07T09:26:23;21.07;;;15.27;;
8574;SDS011;4325;42.520;27.448;2022-12-07T09:28:50;21.23;;;13.83;;
8574;SDS011;4325;42.520;27.448;2022-12-07T09:31:16;13.50;;;11.17;;
8574;SDS011;4325;42.520;27.448;2022-12-07T09:33:43;14.10;;;10.77;;
8574;SDS011;4325;42.520;27.448;2022-12-07T09:36:10;12.83;;;11.53;;
8574;SDS011;4325;42.520;27.448;2022-12-07T09:38:37;14.03;;;10.70;;
8574;SDS011;4325;42.520;27.448;2022-12-07T09:41:04;15.73;;;13.90;;
8574;SDS011;4325;42.520;27.448;2022-12-07T09:43:34;23.10;;;15.80;;
8574;SDS011;4325;42.520;27.448;2022-12-07T09:46:02;11.97;;;10.77;;
8574;SDS011;4325;42.520;27.448;2022-12-07T09:48:30;14.40;;;13.00;;
8574;SDS011;4325;42.520;27.448;2022-12-07T09:51:00;11.43;;;10.23;;
8574;SDS011;4325;42.520;27.448;2022-12-07T09:53:46;10.30;;;9.30;;
8574;SDS011;4325;42.520;27.448;2022-12-07T09:56:13;14.60;;;10.00;;
8574;SDS011;4325;42.520;27.448;2022-12-07T09:58:43;9.43;;;8.53;;
8574;SDS011;4325;42.520;27.448;2022-12-07T10:01:11;11.53;;;9.13;;
8574;SDS011;4325;42.520;27.448;2022-12-07T10:03:42;14.40;;;10.17;;
8574;SDS011;4325;42.520;27.448;2022-12-07T10:06:14;13.83;;;10.07;;
8574;SDS011;4325;42.520;27.448;2022-12-07T10:08:41;12.33;;;11.13;;
8574;SDS011;4325;42.520;27.448;2022-12-07T10:11:09;16.20;;;11.57;;
8574;SDS011;4325;42.520;27.448;2022-12-07T10:13:37;14.47;;;12.93;;
8574;SDS011;4325;42.520;27.448;2022-12-07T10:16:06;17.03;;;12.47;;
8574;SDS011;4325;42.520;27.448;2022-12-07T10:18:57;11.23;;;9.73;;
8574;SDS011;4325;42.520;27.448;2022-12-07T10:21:54;11.60;;;10.33;;
8574;SDS011;4325;42.520;27.448;2022-12-07T10:24:26;12.47;;;10.90;;
8574;SDS011;4325;42.520;27.448;2022-12-07T10:26:53;11.37;;;9.80;;
8574;SDS011;4325;42.520;27.448;2022-12-07T10:29:21;11.50;;;10.20;;
8574;SDS011;4325;42.520;27.448;2022-12-07T10:31:52;10.13;;;9.20;;
8574;SDS011;4325;42.520;27.448;2022-12-07T10:34:24;11.63;;;10.30;;
8574;SDS011;4325;42.520;27.448;2022-12-07T10:36:52;13.77;;;12.37;;
8574;SDS011;4325;42.520;27.448;2022-12-07T10:39:20;14.87;;;13.30;;
8574;SDS011;4325;42.520;27.448;2022-12-07T10:41:54;12.23;;;10.80;;
8574;SDS011;4325;42.520;27.448;2022-12-07T10:44:23;13.37;;;10.67;;
8574;SDS011;4325;42.520;27.448;2022-12-07T10:50:01;13.67;;;10.20;;
8574;SDS011;4325;42.520;27.448;2022-12-07T10:55:34;11.57;;;9.07;;
8574;SDS011;4325;42.520;27.448;2022-12-07T10:58:19;9.77;;;8.40;;
8574;SDS011;4325;42.520;27.448;2022-12-07T11:00:59;13.77;;;9.10;;
8574;SDS011;4325;42.520;27.448;2022-12-07T11:03:40;14.70;;;9.37;;
8574;SDS011;4325;42.520;27.448;2022-12-07T11:06:21;14.37;;;9.47;;
8574;SDS011;4325;42.520;27.448;2022-12-07T11:09:03;11.80;;;9.67;;
8574;SDS011;4325;42.520;27.448;2022-12-07T11:11:51;14.07;;;10.87;;
8574;SDS011;4325;42.520;27.448;2022-12-07T11:14:28;10.93;;;9.83;;
8574;SDS011;4325;42.520;27.448;2022-12-07T11:17:01;15.07;;;10.53;;
8574;SDS011;4325;42.520;27.448;2022-12-07T11:19:46;18.80;;;11.10;;
8574;SDS011;4325;42.520;27.448;2022-12-07T11:22:20;18.03;;;13.07;;
8574;SDS011;4325;42.520;27.448;2022-12-07T11:24:56;22.57;;;14.80;;
8574;SDS011;4325;42.520;27.448;2022-12-07T11:27:30;20.07;;;15.23;;
8574;SDS011;4325;42.520;27.448;2022-12-07T11:30:13;22.60;;;14.27;;
8574;SDS011;4325;42.520;27.448;2022-12-07T11:32:50;19.67;;;12.50;;
8574;SDS011;4325;42.520;27.448;2022-12-07T11:35:35;12.60;;;10.30;;
8574;SDS011;4325;42.520;27.448;2022-12-07T11:38:11;13.67;;;11.70;;
8574;SDS011;4325;42.520;27.448;2022-12-07T11:40:41;18.90;;;13.70;;
8574;SDS011;4325;42.520;27.448;2022-12-07T11:43:13;13.23;;;11.53;;
8574;SDS011;4325;42.520;27.448;2022-12-07T11:45:47;16.67;;;11.70;;
8574;SDS011;4325;42.520;27.448;2022-12-07T11:48:24;17.50;;;13.57;;
8574;SDS011;4325;42.520;27.448;2022-12-07T11:50:59;17.90;;;12.50;;
8574;SDS011;4325;42.520;27.448;2022-12-07T11:53:30;13.83;;;10.87;;
8574;SDS011;4325;42.520;27.448;2022-12-07T11:56:00;22.63;;;12.23;;
8574;SDS011;4325;42.520;27.448;2022-12-07T11:58:41;13.93;;;10.83;;
8574;SDS011;4325;42.520;27.448;2022-12-07T12:01:16;16.00;;;11.87;;
8574;SDS011;4325;42.520;27.448;2022-12-07T12:03:54;12.93;;;10.73;;
8574;SDS011;4325;42.520;27.448;2022-12-07T12:06:30;11.80;;;10.40;;
8574;SDS011;4325;42.520;27.448;2022-12-07T12:09:01;14.67;;;10.37;;
8574;SDS011;4325;42.520;27.448;2022-12-07T12:11:36;17.30;;;12.50;;
8574;SDS011;4325;42.520;27.448;2022-12-07T12:14:26;20.60;;;11.93;;
8574;SDS011;4325;42.520;27.448;2022-12-07T12:19:58;16.53;;;13.00;;
8574;SDS011;4325;42.520;27.448;2022-12-07T12:22:32;15.63;;;13.90;;
8574;SDS011;4325;42.520;27.448;2022-12-07T12:25:04;13.47;;;10.30;;
8574;SDS011;4325;42.520;27.448;2022-12-07T12:27:34;16.93;;;10.70;;
8574;SDS011;4325;42.520;27.448;2022-12-07T12:30:05;19.03;;;9.83;;
8574;SDS011;4325;42.520;27.448;2022-12-07T12:32:51;14.13;;;10.83;;
8574;SDS011;4325;42.520;27.448;2022-12-07T12:35:22;14.10;;;10.60;;
8574;SDS011;4325;42.520;27.448;2022-12-07T12:38:01;14.87;;;10.60;;
8574;SDS011;4325;42.520;27.448;2022-12-07T12:40:52;18.83;;;10.77;;
8574;SDS011;4325;42.520;27.448;2022-12-07T12:52:00;19.20;;;14.20;;
8574;SDS011;4325;42.520;27.448;2022-12-07T12:54:30;23.93;;;14.87;;
8574;SDS011;4325;42.520;27.448;2022-12-07T12:56:59;18.97;;;12.00;;
8574;SDS011;4325;42.520;27.448;2022-12-07T12:59:32;15.63;;;12.03;;
8574;SDS011;4325;42.520;27.448;2022-12-07T13:02:15;20.53;;;14.20;;
8574;SDS011;4325;42.520;27.448;2022-12-07T13:04:53;27.50;;;11.40;;
8574;SDS011;4325;42.520;27.448;2022-12-07T13:10:40;16.83;;;11.53;;
8574;SDS011;4325;42.520;27.448;2022-12-07T13:13:28;22.00;;;13.03;;
8574;SDS011;4325;42.520;27.448;2022-12-07T13:22:39;25.20;;;12.03;;
8574;SDS011;4325;42.520;27.448;2022-12-07T13:25:10;15.10;;;12.17;;
8574;SDS011;4325;42.520;27.448;2022-12-07T13:27:41;20.83;;;12.50;;
8574;SDS011;4325;42.520;27.448;2022-12-07T13:30:14;18.27;;;13.03;;
8574;SDS011;4325;42.520;27.448;2022-12-07T13:32:43;20.40;;;12.40;;
8574;SDS011;4325;42.520;27.448;2022-12-07T13:35:28;22.50;;;12.87;;
8574;SDS011;4325;42.520;27.448;2022-12-07T13:37:56;16.73;;;12.27;;
8574;SDS011;4325;42.520;27.448;2022-12-07T13:40:23;14.97;;;12.10;;
8574;SDS011;4325;42.520;27.448;2022-12-07T13:42:58;21.20;;;12.60;;
8574;SDS011;4325;42.520;27.448;2022-12-07T13:45:26;21.10;;;10.80;;
8574;SDS011;4325;42.520;27.448;2022-12-07T13:48:08;17.43;;;11.80;;
8574;SDS011;4325;42.520;27.448;2022-12-07T13:50:40;19.30;;;11.90;;
8574;SDS011;4325;42.520;27.448;2022-12-07T13:53:11;22.10;;;12.67;;
8574;SDS011;4325;42.520;27.448;2022-12-07T13:55:44;14.60;;;12.00;;
8574;SDS011;4325;42.520;27.448;2022-12-07T13:58:13;17.40;;;12.60;;
8574;SDS011;4325;42.520;27.448;2022-12-07T14:00:40;15.80;;;12.37;;
8574;SDS011;4325;42.520;27.448;2022-12-07T14:03:22;17.60;;;12.30;;
8574;SDS011;4325;42.520;27.448;2022-12-07T14:08:45;21.00;;;11.97;;
8574;SDS011;4325;42.520;27.448;2022-12-07T14:11:14;22.30;;;13.00;;
8574;SDS011;4325;42.520;27.448;2022-12-07T14:13:50;24.50;;;13.00;;
8574;SDS011;4325;42.520;27.448;2022-12-07T14:16:24;17.60;;;13.43;;
8574;SDS011;4325;42.520;27.448;2022-12-07T14:18:53;24.70;;;15.53;;
8574;SDS011;4325;42.520;27.448;2022-12-07T14:21:22;22.87;;;14.93;;
8574;SDS011;4325;42.520;27.448;2022-12-07T14:24:07;24.17;;;14.83;;
8574;SDS011;4325;42.520;27.448;2022-12-07T14:26:37;26.97;;;15.30;;
8574;SDS011;4325;42.520;27.448;2022-12-07T14:32:17;31.10;;;18.20;;
8574;SDS011;4325;42.520;27.448;2022-12-07T14:34:59;24.53;;;17.47;;
8574;SDS011;4325;42.520;27.448;2022-12-07T14:37:28;25.00;;;17.53;;
8574;SDS011;4325;42.520;27.448;2022-12-07T14:39:55;27.83;;;16.83;;
8574;SDS011;4325;42.520;27.448;2022-12-07T14:42:23;23.03;;;15.00;;
8574;SDS011;4325;42.520;27.448;2022-12-07T14:44:54;23.73;;;16.23;;
8574;SDS011;4325;42.520;27.448;2022-12-07T14:47:21;25.50;;;16.97;;
8574;SDS011;4325;42.520;27.448;2022-12-07T14:49:48;28.80;;;16.17;;
8574;SDS011;4325;42.520;27.448;2022-12-07T14:52:16;30.73;;;17.17;;
8574;SDS011;4325;42.520;27.448;2022-12-07T14:54:45;23.50;;;18.57;;
8574;SDS011;4325;42.520;27.448;2022-12-07T14:57:12;30.70;;;20.13;;
8574;SDS011;4325;42.520;27.448;2022-12-07T14:59:39;33.10;;;19.67;;
8574;SDS011;4325;42.520;27.448;2022-12-07T15:02:09;30.33;;;18.40;;
8574;SDS011;4325;42.520;27.448;2022-12-07T15:04:38;34.13;;;18.63;;
8574;SDS011;4325;42.520;27.448;2022-12-07T15:07:09;36.80;;;18.33;;
8574;SDS011;4325;42.520;27.448;2022-12-07T15:09:41;26.60;;;16.97;;
8574;SDS011;4325;42.520;27.448;2022-12-07T15:12:07;23.83;;;16.40;;
8574;SDS011;4325;42.520;27.448;2022-12-07T15:14:34;33.07;;;18.43;;
8574;SDS011;4325;42.520;27.448;2022-12-07T15:17:01;34.93;;;19.73;;
8574;SDS011;4325;42.520;27.448;2022-12-07T15:19:29;31.63;;;17.33;;
8574;SDS011;4325;42.520;27.448;2022-12-07T15:21:56;30.87;;;18.93;;
8574;SDS011;4325;42.520;27.448;2022-12-07T15:24:25;37.60;;;20.37;;
8574;SDS011;4325;42.520;27.448;2022-12-07T15:26:52;39.27;;;20.10;;
8574;SDS011;4325;42.520;27.448;2022-12-07T15:29:19;36.90;;;21.03;;